createdAt,value
2023-03-29T00:01:35.789Z,22.28
2023-03-29T00:04:17.500Z,22.18
2023-03-29T00:06:51.701Z,22.11
2023-03-29T00:09:23.144Z,22.04
2023-03-29T00:11:53.277Z,22.02
2023-03-29T00:14:23.263Z,22.02
2023-03-29T00:16:53.605Z,21.98
2023-03-29T00:19:23.607Z,21.98
2023-03-29T00:21:53.812Z,21.91
2023-03-29T00:24:25.183Z,21.86
2023-03-29T00:26:55.364Z,21.79
2023-03-29T00:29:25.310Z,21.81
2023-03-29T00:31:57.063Z,21.80
2023-03-29T00:34:32.066Z,21.78
2023-03-29T00:37:02.301Z,21.83
2023-03-29T00:39:32.733Z,21.86
2023-03-29T00:42:03.828Z,21.80
2023-03-29T00:44:55.361Z,21.79
2023-03-29T00:47:34.925Z,21.72
2023-03-29T00:50:14.444Z,21.68
2023-03-29T00:52:50.016Z,21.62
2023-03-29T00:55:24.324Z,21.48
2023-03-29T00:57:57.340Z,21.49
2023-03-29T01:00:34.961Z,21.48
2023-03-29T01:03:14.641Z,21.52
2023-03-29T01:05:51.858Z,21.60
2023-03-29T01:08:56.393Z,21.65
2023-03-29T01:11:34.064Z,21.63
2023-03-29T01:14:11.787Z,21.72
2023-03-29T01:16:41.817Z,21.97
2023-03-29T01:19:17.048Z,21.85
2023-03-29T01:21:53.072Z,21.78
2023-03-29T01:24:39.140Z,21.81
2023-03-29T01:27:19.568Z,21.65
2023-03-29T01:29:56.388Z,21.72
2023-03-29T01:32:28.807Z,21.75
2023-03-29T01:35:11.674Z,21.72
2023-03-29T01:38:00.387Z,21.65
2023-03-29T01:40:32.265Z,21.65
2023-03-29T01:43:23.477Z,21.63
2023-03-29T01:46:03.226Z,21.61
2023-03-29T01:48:45.512Z,21.64
2023-03-29T01:51:38.190Z,21.72
2023-03-29T01:54:19.819Z,21.84
2023-03-29T01:56:52.941Z,21.75
2023-03-29T01:59:29.668Z,21.74
2023-03-29T02:02:02.646Z,21.75
2023-03-29T02:04:51.509Z,21.69
2023-03-29T02:07:27.654Z,21.63
2023-03-29T02:09:59.736Z,21.64
2023-03-29T02:12:30.071Z,21.65
2023-03-29T02:15:01.988Z,21.61
2023-03-29T02:17:32.481Z,21.53
2023-03-29T02:20:18.757Z,21.53
2023-03-29T02:22:58.883Z,21.48
2023-03-29T02:25:28.945Z,21.50
2023-03-29T02:27:59.541Z,21.41
2023-03-29T02:30:35.446Z,21.39
2023-03-29T02:33:16.777Z,21.30
2023-03-29T02:36:30.814Z,21.22
2023-03-29T02:39:03.149Z,21.21
2023-03-29T02:41:34.929Z,21.17
2023-03-29T02:44:09.309Z,21.14
2023-03-29T02:46:39.699Z,21.13
2023-03-29T02:49:11.542Z,21.06
2023-03-29T02:51:41.597Z,21.04
2023-03-29T02:54:19.535Z,20.99
2023-03-29T02:56:56.916Z,20.98
2023-03-29T02:59:27.714Z,21.02
2023-03-29T03:01:57.942Z,20.99
2023-03-29T03:04:30.685Z,20.95
2023-03-29T03:07:00.922Z,21.02
2023-03-29T03:09:32.954Z,21.09
2023-03-29T03:12:03.293Z,21.05
2023-03-29T03:14:33.831Z,21.12
2023-03-29T03:17:04.846Z,21.31
2023-03-29T03:19:35.716Z,21.31
2023-03-29T03:22:07.247Z,21.39
2023-03-29T03:24:37.438Z,21.20
2023-03-29T03:27:07.718Z,21.19
2023-03-29T03:29:39.698Z,21.28
2023-03-29T03:32:28.454Z,21.31
2023-03-29T03:35:27.680Z,21.40
2023-03-29T03:37:57.605Z,21.32
2023-03-29T03:40:28.383Z,21.28
2023-03-29T03:42:58.584Z,21.35
2023-03-29T03:45:28.911Z,21.50
2023-03-29T03:48:10.486Z,21.27
2023-03-29T03:51:10.701Z,21.30
2023-03-29T03:53:40.647Z,21.36
2023-03-29T03:56:17.456Z,21.47
2023-03-29T03:59:08.298Z,21.39
2023-03-29T04:01:59.416Z,21.36
2023-03-29T04:04:29.970Z,21.42
2023-03-29T04:07:07.042Z,21.37
2023-03-29T04:09:44.420Z,21.53
2023-03-29T04:12:33.006Z,21.44
2023-03-29T04:15:05.034Z,21.40
2023-03-29T04:17:36.935Z,21.46
2023-03-29T04:20:17.018Z,21.36
2023-03-29T04:22:47.898Z,21.37
2023-03-29T04:25:18.594Z,21.42
2023-03-29T04:27:52.328Z,21.38
2023-03-29T04:30:33.867Z,21.36
2023-03-29T04:33:16.514Z,21.35
2023-03-29T04:35:51.352Z,21.35
2023-03-29T04:38:24.230Z,21.35
2023-03-29T04:40:56.529Z,21.29
2023-03-29T04:43:38.424Z,21.27
2023-03-29T04:46:44.175Z,21.28
2023-03-29T04:49:49.651Z,21.34
2023-03-29T04:52:34.468Z,21.34
2023-03-29T04:55:08.211Z,21.41
2023-03-29T04:57:48.940Z,21.52
2023-03-29T05:00:28.726Z,21.45
2023-03-29T05:03:21.013Z,21.19
2023-03-29T05:06:13.207Z,21.08
2023-03-29T05:08:43.730Z,21.00
2023-03-29T05:11:26.294Z,20.94
2023-03-29T05:13:58.463Z,20.99
2023-03-29T05:16:33.691Z,21.09
2023-03-29T05:19:03.927Z,21.19
2023-03-29T05:21:37.788Z,21.10
2023-03-29T05:24:11.192Z,21.22
2023-03-29T05:26:54.144Z,21.28
2023-03-29T05:29:24.818Z,21.55
2023-03-29T05:32:02.511Z,21.64
2023-03-29T05:34:33.196Z,21.83
2023-03-29T05:37:05.029Z,21.93
2023-03-29T05:39:45.149Z,21.90
2023-03-29T05:42:16.817Z,21.72
2023-03-29T05:45:07.736Z,22.36
2023-03-29T05:47:38.069Z,22.36
2023-03-29T05:50:10.987Z,22.14
2023-03-29T05:52:42.264Z,21.96
2023-03-29T05:55:12.348Z,22.30
2023-03-29T05:57:42.692Z,22.47
2023-03-29T06:00:25.061Z,22.48
2023-03-29T06:03:17.913Z,22.52
2023-03-29T06:05:57.620Z,22.75
2023-03-29T06:08:29.718Z,22.58
2023-03-29T06:11:10.214Z,22.36
2023-03-29T06:13:59.347Z,22.43
2023-03-29T06:16:30.330Z,22.55
2023-03-29T06:19:00.581Z,22.45
2023-03-29T06:21:33.057Z,22.56
2023-03-29T06:24:05.193Z,22.73
2023-03-29T06:26:41.111Z,22.50
2023-03-29T06:29:11.494Z,22.36
2023-03-29T06:31:43.495Z,22.53
2023-03-29T06:34:28.738Z,22.37
2023-03-29T06:37:22.751Z,21.93
2023-03-29T06:40:02.134Z,21.96
2023-03-29T06:42:37.873Z,21.86
2023-03-29T06:45:34.442Z,21.83
2023-03-29T06:48:11.450Z,21.94
2023-03-29T06:50:43.106Z,22.46
2023-03-29T06:53:16.988Z,22.29
2023-03-29T06:55:55.810Z,22.06
2023-03-29T06:58:40.405Z,22.05
2023-03-29T07:01:39.942Z,22.30
2023-03-29T07:04:20.230Z,22.46
2023-03-29T07:07:13.248Z,21.97
2023-03-29T07:09:43.758Z,22.19
2023-03-29T07:12:32.840Z,22.66
2023-03-29T07:15:04.322Z,22.53
2023-03-29T07:18:00.290Z,22.51
2023-03-29T07:20:30.501Z,22.54
2023-03-29T07:23:10.808Z,22.68
2023-03-29T07:25:44.008Z,23.04
2023-03-29T07:28:14.268Z,23.25
2023-03-29T07:30:44.146Z,23.18
2023-03-29T07:33:18.113Z,22.91
2023-03-29T07:36:06.132Z,22.94
2023-03-29T07:38:38.034Z,22.61
2023-03-29T07:41:15.935Z,22.70
2023-03-29T07:43:52.961Z,22.68
2023-03-29T07:46:27.595Z,22.81
2023-03-29T07:48:59.192Z,22.93
2023-03-29T07:51:29.352Z,23.03
2023-03-29T07:54:08.928Z,23.02
2023-03-29T07:56:49.175Z,23.31
2023-03-29T07:59:36.170Z,23.60
2023-03-29T08:02:22.420Z,23.49
2023-03-29T08:04:58.483Z,23.20
2023-03-29T08:07:28.645Z,23.11
2023-03-29T08:10:14.676Z,23.01
2023-03-29T08:13:12.197Z,23.26
2023-03-29T08:16:05.469Z,23.09
2023-03-29T08:18:40.921Z,23.21
2023-03-29T08:21:12.029Z,23.36
2023-03-29T08:23:42.395Z,23.26
2023-03-29T08:26:26.118Z,23.25
2023-03-29T08:28:57.060Z,23.24
2023-03-29T08:31:29.845Z,23.27
2023-03-29T08:33:59.753Z,23.68
2023-03-29T08:36:54.190Z,23.46
2023-03-29T08:39:30.688Z,23.55
2023-03-29T08:42:31.305Z,23.39
2023-03-29T08:45:19.724Z,23.13
2023-03-29T08:48:33.309Z,23.04
2023-03-29T08:51:11.785Z,23.13
2023-03-29T08:53:47.206Z,23.20
2023-03-29T08:56:41.958Z,23.02
2023-03-29T08:59:29.658Z,23.07
2023-03-29T09:02:03.889Z,23.31
2023-03-29T09:04:37.757Z,23.34
2023-03-29T09:07:30.658Z,23.23
2023-03-29T09:10:04.366Z,23.21
2023-03-29T09:13:00.225Z,22.98
2023-03-29T09:15:39.436Z,22.76
2023-03-29T09:18:25.724Z,22.70
2023-03-29T09:21:03.103Z,22.51
2023-03-29T09:23:52.733Z,22.68
2023-03-29T09:26:54.682Z,22.57
2023-03-29T09:30:27.640Z,22.50
2023-03-29T09:33:23.583Z,22.67
2023-03-29T09:36:26.182Z,22.65
2023-03-29T09:38:56.755Z,22.62
2023-03-29T09:41:42.969Z,22.79
2023-03-29T09:44:30.180Z,22.86
2023-03-29T09:47:30.809Z,22.84
2023-03-29T09:50:22.991Z,22.81
2023-03-29T09:52:58.006Z,22.68
2023-03-29T09:55:33.406Z,22.78
2023-03-29T09:58:34.175Z,22.87
2023-03-29T10:01:11.178Z,22.90
2023-03-29T10:03:43.708Z,22.98
2023-03-29T10:06:19.901Z,23.02
2023-03-29T10:09:00.045Z,22.98
2023-03-29T10:11:41.826Z,23.05
2023-03-29T10:14:19.444Z,23.15
2023-03-29T10:16:57.963Z,23.40
2023-03-29T10:19:36.583Z,23.94
2023-03-29T10:22:09.369Z,24.41
2023-03-29T10:24:38.736Z,24.72
2023-03-29T10:27:12.759Z,25.08
2023-03-29T10:29:44.512Z,25.34
2023-03-29T10:32:39.667Z,25.60
2023-03-29T10:35:43.124Z,25.75
2023-03-29T10:38:16.069Z,26.11
2023-03-29T10:40:51.439Z,26.41
2023-03-29T10:43:21.656Z,26.94
2023-03-29T10:45:53.818Z,27.38
2023-03-29T10:48:31.516Z,27.49
2023-03-29T10:51:04.452Z,27.93
2023-03-29T10:53:39.368Z,28.28
2023-03-29T10:56:25.759Z,28.77
2023-03-29T10:59:24.640Z,29.10
2023-03-29T11:02:03.386Z,29.32
2023-03-29T11:04:48.734Z,29.93
2023-03-29T11:07:31.034Z,30.14
2023-03-29T11:10:38.447Z,30.33
2023-03-29T11:13:42.200Z,30.94
2023-03-29T11:16:39.142Z,31.58
2023-03-29T11:19:32.778Z,31.62
2023-03-29T11:22:26.551Z,31.85
2023-03-29T11:25:01.984Z,32.28
2023-03-29T11:27:47.381Z,32.46
2023-03-29T11:30:19.662Z,33.06
2023-03-29T11:33:04.009Z,33.75
2023-03-29T11:35:39.303Z,34.37
2023-03-29T11:38:33.462Z,34.89
2023-03-29T11:41:19.191Z,35.05
2023-03-29T11:43:55.979Z,33.92
2023-03-29T11:46:42.934Z,34.32
2023-03-29T11:49:31.567Z,34.42
2023-03-29T11:52:16.487Z,34.94
2023-03-29T11:54:59.953Z,35.32
2023-03-29T11:57:44.670Z,35.76
2023-03-29T12:00:25.219Z,36.30
2023-03-29T12:03:14.320Z,36.68
2023-03-29T12:05:52.766Z,37.01
2023-03-29T12:08:39.719Z,37.26
2023-03-29T12:11:33.863Z,37.90
2023-03-29T12:14:15.768Z,38.04
2023-03-29T12:17:06.291Z,38.53
2023-03-29T12:19:43.750Z,38.59
2023-03-29T12:22:14.057Z,38.63
2023-03-29T12:24:49.913Z,37.93
2023-03-29T12:27:29.316Z,38.31
2023-03-29T12:30:20.720Z,38.78
2023-03-29T12:33:28.694Z,39.18
2023-03-29T12:36:44.848Z,38.69
2023-03-29T12:39:54.185Z,38.79
2023-03-29T12:42:55.592Z,38.25
2023-03-29T12:45:43.984Z,38.77
2023-03-29T12:48:21.618Z,38.69
2023-03-29T12:51:03.986Z,37.97
2023-03-29T12:54:02.700Z,39.45
2023-03-29T12:56:43.984Z,38.89
2023-03-29T12:59:48.244Z,39.35
2023-03-29T13:02:19.169Z,40.20
2023-03-29T13:04:55.026Z,40.65
2023-03-29T13:07:25.267Z,40.95
2023-03-29T13:10:10.546Z,41.22
2023-03-29T13:12:47.028Z,41.26
2023-03-29T13:15:18.113Z,41.36
2023-03-29T13:18:17.419Z,41.65
2023-03-29T13:20:48.524Z,41.74
2023-03-29T13:23:37.472Z,41.72
2023-03-29T13:26:28.986Z,40.77
2023-03-29T13:29:08.365Z,40.72
2023-03-29T13:31:45.762Z,41.72
2023-03-29T13:34:37.111Z,42.35
2023-03-29T13:37:31.196Z,40.83
2023-03-29T13:40:01.411Z,39.95
2023-03-29T13:42:37.713Z,40.25
2023-03-29T13:45:29.515Z,39.61
2023-03-29T13:48:35.187Z,40.31
2023-03-29T13:51:23.558Z,41.67
2023-03-29T13:54:23.234Z,42.81
2023-03-29T13:57:12.566Z,42.75
2023-03-29T14:00:13.464Z,43.22
2023-03-29T14:02:50.345Z,42.79
2023-03-29T14:05:26.260Z,41.39
2023-03-29T14:07:57.328Z,40.50
2023-03-29T14:10:37.393Z,40.28
2023-03-29T14:13:08.320Z,40.40
2023-03-29T14:15:48.013Z,40.01
2023-03-29T14:18:22.775Z,40.86
2023-03-29T14:20:56.713Z,42.49
2023-03-29T14:23:31.765Z,41.19
2023-03-29T14:26:15.654Z,40.53
2023-03-29T14:28:51.806Z,39.57
2023-03-29T14:31:27.959Z,39.77
2023-03-29T14:34:02.715Z,40.01
2023-03-29T14:36:34.788Z,40.32
2023-03-29T14:39:21.014Z,40.01
2023-03-29T14:41:56.644Z,40.54
2023-03-29T14:44:34.682Z,41.18
2023-03-29T14:47:05.552Z,41.14
2023-03-29T14:49:36.913Z,41.62
2023-03-29T14:52:07.827Z,42.09
2023-03-29T14:54:39.103Z,42.52
2023-03-29T14:57:09.487Z,43.11
2023-03-29T14:59:43.895Z,43.47
2023-03-29T15:02:34.772Z,42.88
2023-03-29T15:05:27.619Z,42.60
2023-03-29T15:07:57.748Z,42.23
2023-03-29T15:10:28.362Z,43.14
2023-03-29T15:12:59.478Z,43.65
2023-03-29T15:15:32.568Z,44.18
2023-03-29T15:18:03.879Z,43.72
2023-03-29T15:20:39.992Z,43.87
2023-03-29T15:23:30.049Z,43.57
2023-03-29T15:26:11.678Z,42.34
2023-03-29T15:28:56.801Z,42.17
2023-03-29T15:31:34.346Z,43.63
2023-03-29T15:34:12.916Z,44.24
2023-03-29T15:36:46.332Z,44.24
2023-03-29T15:39:18.255Z,44.61
2023-03-29T15:41:51.595Z,44.17
2023-03-29T15:44:34.812Z,43.23
2023-03-29T15:47:05.381Z,43.58
2023-03-29T15:49:35.055Z,43.64
2023-03-29T15:52:05.991Z,44.64
2023-03-29T15:54:38.305Z,44.81
2023-03-29T15:57:13.326Z,45.05
2023-03-29T15:59:44.427Z,45.21
2023-03-29T16:02:21.307Z,45.68
2023-03-29T16:04:51.475Z,45.80
2023-03-29T16:07:22.096Z,45.01
2023-03-29T16:09:52.509Z,44.67
2023-03-29T16:12:22.270Z,44.48
2023-03-29T16:14:52.702Z,43.72
2023-03-29T16:17:22.630Z,44.11
2023-03-29T16:19:53.238Z,43.92
2023-03-29T16:22:23.696Z,44.64
2023-03-29T16:24:54.164Z,45.03
2023-03-29T16:27:24.082Z,45.68
2023-03-29T16:29:54.456Z,45.54
2023-03-29T16:32:24.209Z,45.58
2023-03-29T16:34:54.796Z,45.60
2023-03-29T16:37:24.598Z,44.54
2023-03-29T16:39:55.167Z,44.85
2023-03-29T16:42:25.573Z,45.22
2023-03-29T16:44:55.890Z,45.19
2023-03-29T16:47:26.315Z,44.97
2023-03-29T16:49:56.247Z,44.21
2023-03-29T16:52:26.853Z,44.51
2023-03-29T16:54:56.899Z,45.35
2023-03-29T16:57:27.748Z,44.37
2023-03-29T16:59:57.999Z,44.38
2023-03-29T17:02:28.332Z,43.81
2023-03-29T17:04:58.657Z,43.83
2023-03-29T17:07:30.537Z,43.44
2023-03-29T17:10:00.538Z,44.18
2023-03-29T17:12:30.852Z,44.19
2023-03-29T17:15:01.032Z,44.05
2023-03-29T17:17:31.447Z,43.18
2023-03-29T17:20:01.589Z,42.60
2023-03-29T17:22:32.047Z,42.03
2023-03-29T17:25:04.595Z,43.55
2023-03-29T17:27:36.749Z,43.45
2023-03-29T17:30:08.141Z,44.06
2023-03-29T17:32:38.507Z,44.58
2023-03-29T17:35:09.520Z,43.76
2023-03-29T17:37:39.930Z,43.78
2023-03-29T17:40:15.012Z,43.96
2023-03-29T17:42:49.890Z,43.40
2023-03-29T17:45:20.553Z,42.26
2023-03-29T17:47:50.521Z,41.28
2023-03-29T17:50:21.063Z,40.71
2023-03-29T17:52:50.885Z,40.12
2023-03-29T17:55:22.227Z,39.32
2023-03-29T17:57:52.814Z,38.94
2023-03-29T18:00:23.058Z,38.53
2023-03-29T18:02:53.478Z,38.03
2023-03-29T18:05:23.459Z,37.68
2023-03-29T18:07:53.966Z,37.11
2023-03-29T18:10:24.067Z,36.69
2023-03-29T18:12:58.493Z,36.62
2023-03-29T18:15:28.361Z,36.47
2023-03-29T18:17:59.848Z,36.11
2023-03-29T18:20:37.182Z,35.86
2023-03-29T18:23:07.708Z,36.09
2023-03-29T18:25:37.371Z,36.26
2023-03-29T18:28:07.735Z,36.29
2023-03-29T18:30:37.615Z,36.38
2023-03-29T18:33:07.937Z,36.29
2023-03-29T18:35:38.161Z,36.32
2023-03-29T18:38:08.904Z,36.16
2023-03-29T18:40:40.249Z,36.09
2023-03-29T18:43:10.469Z,35.87
2023-03-29T18:45:40.390Z,35.88
2023-03-29T18:48:11.071Z,36.08
2023-03-29T18:50:41.074Z,36.12
2023-03-29T18:53:10.667Z,36.17
2023-03-29T18:55:44.293Z,36.33
2023-03-29T18:58:16.057Z,36.51
2023-03-29T19:00:46.636Z,36.79
2023-03-29T19:03:16.497Z,36.46
2023-03-29T19:05:46.948Z,36.74
2023-03-29T19:08:16.734Z,37.13
2023-03-29T19:10:47.132Z,36.62
2023-03-29T19:13:16.694Z,36.75
2023-03-29T19:15:46.638Z,36.53
2023-03-29T19:18:17.159Z,36.53
2023-03-29T19:20:46.853Z,35.85
2023-03-29T19:23:17.026Z,34.80
2023-03-29T19:25:54.078Z,34.14
2023-03-29T19:28:25.846Z,32.97
2023-03-29T19:30:57.351Z,32.39
2023-03-29T19:33:27.951Z,32.06
2023-03-29T19:35:58.265Z,31.87
2023-03-29T19:38:28.702Z,31.38
2023-03-29T19:40:58.514Z,30.15
2023-03-29T19:43:28.728Z,29.28
2023-03-29T19:45:58.569Z,28.73
2023-03-29T19:48:28.806Z,27.95
2023-03-29T19:51:03.933Z,27.02
2023-03-29T19:53:37.021Z,25.81
2023-03-29T19:56:12.409Z,24.73
2023-03-29T19:58:43.905Z,23.93
2023-03-29T20:01:16.684Z,23.77
2023-03-29T20:03:47.909Z,23.71
2023-03-29T20:06:19.676Z,23.65
2023-03-29T20:08:50.064Z,23.28
2023-03-29T20:11:24.825Z,23.14
2023-03-29T20:13:55.141Z,22.98
2023-03-29T20:16:25.588Z,22.87
2023-03-29T20:18:57.333Z,22.95
2023-03-29T20:21:27.146Z,23.31
2023-03-29T20:23:58.447Z,23.68
2023-03-29T20:26:29.230Z,24.29
2023-03-29T20:28:59.151Z,24.52
2023-03-29T20:31:30.598Z,24.84
2023-03-29T20:34:00.962Z,24.89
2023-03-29T20:36:31.707Z,25.03
2023-03-29T20:39:02.330Z,25.01
2023-03-29T20:41:34.904Z,25.15
2023-03-29T20:44:06.765Z,25.06
2023-03-29T20:46:36.961Z,24.83
2023-03-29T20:49:09.941Z,24.84
2023-03-29T20:51:39.854Z,24.78
2023-03-29T20:54:11.150Z,24.70
2023-03-29T20:56:43.511Z,24.60
2023-03-29T20:59:13.715Z,24.44
2023-03-29T21:01:43.551Z,24.29
2023-03-29T21:04:13.986Z,24.14
2023-03-29T21:06:46.617Z,24.14
2023-03-29T21:09:22.078Z,24.06
2023-03-29T21:11:52.733Z,24.01
2023-03-29T21:14:23.433Z,23.99
2023-03-29T21:16:53.202Z,23.92
2023-03-29T21:19:25.352Z,23.88
2023-03-29T21:21:56.143Z,23.94
2023-03-29T21:24:26.546Z,23.92
2023-03-29T21:26:56.558Z,23.78
2023-03-29T21:29:27.078Z,23.51
2023-03-29T21:31:57.011Z,23.18
2023-03-29T21:34:27.230Z,22.90
2023-03-29T21:36:57.196Z,22.71
2023-03-29T21:39:28.021Z,22.60
2023-03-29T21:41:58.073Z,22.60
2023-03-29T21:44:28.228Z,22.56
2023-03-29T21:46:57.933Z,22.49
2023-03-29T21:49:27.903Z,22.47
2023-03-29T21:51:58.323Z,22.49
2023-03-29T21:54:28.895Z,22.44
2023-03-29T21:56:59.068Z,22.38
2023-03-29T21:59:29.272Z,22.37
2023-03-29T22:01:59.642Z,22.38
2023-03-29T22:04:36.564Z,22.43
2023-03-29T22:07:11.740Z,22.50
2023-03-29T22:09:43.448Z,22.54
2023-03-29T22:12:13.594Z,22.76
2023-03-29T22:14:43.189Z,22.96
2023-03-29T22:17:13.143Z,23.11
2023-03-29T22:19:43.807Z,23.16
2023-03-29T22:22:16.051Z,23.29
2023-03-29T22:24:46.458Z,23.49
2023-03-29T22:27:16.037Z,23.47
2023-03-29T22:29:45.850Z,23.44
2023-03-29T22:32:16.742Z,23.20
2023-03-29T22:34:46.743Z,22.96
2023-03-29T22:37:17.029Z,22.81
2023-03-29T22:39:47.037Z,22.62
2023-03-29T22:42:17.368Z,22.60
2023-03-29T22:44:47.246Z,22.67
2023-03-29T22:47:17.600Z,22.78
2023-03-29T22:49:47.402Z,23.14
2023-03-29T22:52:20.499Z,23.61
2023-03-29T22:54:50.288Z,24.01
2023-03-29T22:57:20.503Z,24.16
2023-03-29T22:59:51.892Z,24.36
2023-03-29T23:02:22.827Z,24.41
2023-03-29T23:04:52.703Z,24.34
2023-03-29T23:07:22.392Z,24.54
2023-03-29T23:09:52.540Z,24.64
2023-03-29T23:12:22.312Z,24.60
2023-03-29T23:14:54.234Z,24.62
2023-03-29T23:17:23.945Z,24.58
2023-03-29T23:19:53.994Z,24.20
2023-03-29T23:22:23.854Z,23.75
2023-03-29T23:24:53.472Z,23.32
2023-03-29T23:27:23.592Z,23.15
2023-03-29T23:29:53.250Z,23.32
2023-03-29T23:32:23.135Z,23.21
2023-03-29T23:34:54.221Z,22.98
2023-03-29T23:37:24.323Z,22.89
2023-03-29T23:39:54.529Z,23.07
2023-03-29T23:42:24.877Z,23.29
2023-03-29T23:44:54.565Z,23.18
2023-03-29T23:47:24.846Z,23.09
2023-03-29T23:49:54.463Z,23.38
2023-03-29T23:52:24.285Z,23.20
2023-03-29T23:54:54.470Z,22.92
2023-03-29T23:57:24.589Z,22.75
